Colsub, Mississippi
Current Conditions -  °F | °C
As of 7:15 PM on Saturday 22 Nov 2014 (Local Time) from KM40 Reporting Station
Clear Clear  
Wind Chill: 55°   Ceiling: Unl
Heat Index: 55°   Visibility: 10mi
Dew Point: 39°   Wind: 0mph
Humidity: 54%   Direction: NA
Pressure: 30.09"   Gusts: NA
Location:  33.9755°N, 88.4422°W
Report Text: KM40 230115Z AUTO 00000KT 10SM CLR 13/04 A3009 RMK AO2
Loading
Personal Weather Stations






























Interactive Weather Map New forecast layout! Learn more

10-Day Weather Forecast

Advertisements
Track Severe Weather on mobile